• Join FlightAware (Why Join?)
  • Login
  • US Flag 
12:12AM EDT


 

Airport Tracker/Info


-or-


 

Live Flight TrackerFlight Track Log ✈ N40BZ ✈ 23-Jul-2013 ✈ KFOK - KBUF

Flight Track Log - Related Links

Times and Time Zones

All times are in EDT time to prevent confusion due to time zone crossing. See the N40BZ flight status page for this flight to view local times or setup timezone preferences in your user account.

Time Position Orientation Groundspeed Altitude Reporting Facility
EDT Latitude Longitude Course Direction KTS MPH feet Rate Location/Type
05:30PM 40.8167 -72.6333 159° South 114 131 500  Level New York TRACON
05:31PM 40.7833 -72.6167 159° South 120 138 1,300 720 Climbing New York TRACON
05:32PM 40.8167 -72.5833 37° Northeast 143 165 2,000 780 Climbing New York TRACON
05:33PM 40.8500 -72.6000 339° North 130 150 2,900 900 Climbing New York TRACON
05:34PM 40.8833 -72.6000 360° North 124 143 3,900 540 Climbing New York TRACON
05:35PM 40.9167 -72.6167 339° North 148 170 4,000  Climbing New York TRACON
05:36PM 40.9667 -72.6333 346° North 161 185 4,000  Level New York TRACON
05:37PM 41.0000 -72.6667 323° Northwest 162 186 4,000  Level New York TRACON
05:38PM 41.0333 -72.7000 323° Northwest 152 175 4,000  Level New York TRACON
05:39PM 41.0667 -72.7333 323° Northwest 146 168 4,000 120 Level New York TRACON
05:40PM 41.1000 -72.7500 339° North 140 161 4,300 360 Climbing New York TRACON
05:41PM 41.1333 -72.7833 323° Northwest 166 191 4,800 600 Climbing New York TRACON
05:42PM 41.1167 -72.8167 236° Southwest 122 140 5,500 600 Climbing New York TRACON
05:43PM 41.0833 -72.8333 201° Southwest 134 154 6,000 240 Climbing New York TRACON
05:44PM 41.0500 -72.8667 217° Southwest 158 182 6,000 360 Level New York TRACON
05:45PM 41.0167 -72.9000 217° Southwest 141 162 6,700 660 Climbing New York TRACON
05:46PM 40.9833 -72.9333 217° Southwest 130 150 7,400 660 Climbing New York TRACON
05:47PM 40.9500 -72.9667 217° Southwest 128 147 8,200 660 Climbing New York TRACON
05:48PM 40.9333 -72.9833 217° Southwest 125 144 8,800 600 Climbing New York TRACON
05:49PM 40.9000 -73.0167 217° Southwest 128 147 9,500 660 Climbing New York TRACON
05:50PM 40.8833 -73.0500 237° Southwest 127 146 10,100 600 Climbing New York TRACON
05:51PM 40.8500 -73.0833 271° West 121 139 10,800 600 Climbing New York TRACON
05:52PM 40.8333 -73.1167 237° Southwest 122 140 11,400 600 Climbing New York TRACON
05:53PM 40.8167 -73.1667 246° West 124 143 12,000 540 Climbing New York TRACON
05:54PM 40.8333 -73.2000 303° West 135 155 12,500 240 Climbing New York TRACON
05:55PM 40.8500 -73.2500 294° West 168 193 12,500 300 Level New York TRACON
05:56PM 40.8833 -73.3000 311° West 151 174 13,200 480 Climbing New York TRACON
05:57PM 40.9167 -73.3333 323° Northwest 147 169 13,500 -300 Climbing New York TRACON
05:58PM 40.9500 -73.3833 311° West 195 224 12,700 -480 Descending New York TRACON
05:59PM 40.9833 -73.4500 304° West 185 213 12,500 -120 Descending New York TRACON
06:00PM 41.0000 -73.5167 288° West 178 205 12,500  Level New York TRACON
06:01PM 41.0167 -73.5667 294° West 174 200 12,500  Level New York TRACON
06:02PM 41.0500 -73.6167 311° West 168 193 12,500  Level New York TRACON
06:03PM 41.0667 -73.6833 288° West 178 205 12,500  Level New York TRACON
06:04PM 41.0833 -73.7500 288° West 176 203 12,500  Level New York TRACON
06:05PM 41.1000 -73.8000 294° West 177 204 12,500  Level New York TRACON
06:06PM 41.1167 -73.8667 288° West 174 200 12,500  Level New York TRACON
06:07PM 41.1333 -73.9333 288° West 175 201 12,600  Climbing New York TRACON
06:08PM 41.1500 -73.9833 294° West 177 204 12,600 -60 Level New York TRACON
06:09PM 41.1833 -74.0500 304° West 178 205 12,500 -60 Descending New York TRACON
06:10PM 41.2000 -74.1000 294° West 176 203 12,500  Level New York TRACON
06:11PM 41.2167 -74.1667 288° West 178 205 12,600 120 Climbing New York TRACON
06:12PM 41.2333 -74.2167 294° West 170 196 12,800 -60 Climbing New York TRACON
06:13PM 41.2667 -74.2833 304° West 185 213 12,500 -120 Descending New York TRACON
06:14PM 41.2833 -74.3333 294° West 178 205 12,600  Climbing New York TRACON
06:15PM 41.3167 -74.3833 312° West 177 204 12,600 -60 Level New York TRACON
06:16PM 41.3333 -74.4500 288° West 179 206 12,500 -60 Descending New York TRACON
06:17PM 41.3500 -74.5000 294° West 176 203 12,500  Level New York TRACON
06:18PM 41.3833 -74.5667 304° West 174 200 12,600  Climbing New York TRACON
06:19PM 41.3969 -74.6125 292° West 176 203 12,600 -60 Level New York Center
06:20PM 41.4219 -74.6719 299° West 176 203 12,500 -60 Descending New York Center
06:21PM 41.4431 -74.7286 296° West 182 209 12,500  Level New York Center
06:22PM 41.4661 -74.7853 299° West 177 204 12,500  Level New York Center
06:23PM 41.4894 -74.8392 300° West 177 204 12,500  Level New York Center
06:24PM 41.5122 -74.8989 297° West 177 204 12,500  Level New York Center
06:25PM 41.5325 -74.9167 327° Northwest 182 209 12,500  Level New York Center
06:26PM 41.5581 -75.0125 290° West 152 175 12,500  Level New York Center
06:27PM 41.5831 -75.0722 299° West 176 203 12,500  Level New York Center
06:28PM 41.6061 -75.1292 298° West 176 203 12,500  Level New York Center
06:29PM 41.6247 -75.1833 295° West 176 203 12,500  Level New York Center
06:30PM 41.6494 -75.2486 297° West 176 203 12,500  Level New York Center
06:31PM 41.6744 -75.3058 300° West 176 203 12,500  Level New York Center
06:32PM 41.6972 -75.3631 298° West 176 203 12,500  Level New York Center
06:33PM 41.7181 -75.4172 297° West 176 203 12,500  Level New York Center
06:34PM 41.7386 -75.4742 296° West 176 203 12,500  Level New York Center
06:35PM 41.7631 -75.5372 297° West 176 203 12,500  Level New York Center
06:36PM 41.7858 -75.5972 297° West 176 203 12,500  Level New York Center
06:37PM 41.8064 -75.6489 298° West 176 203 12,600  Climbing New York Center
06:38PM 41.8328 -75.7147 298° West 176 203 12,600  Level New York Center
06:39PM 41.8533 -75.7719 296° West 176 203 12,600  Level New York Center
06:40PM 41.8722 -75.8208 297° West 176 203 12,600  Level New York Center
06:41PM 41.8986 -75.8869 298° West 176 203 12,600 -180 Level New York Center
06:42PM 41.9208 -75.9472 296° West 176 203 12,300 -300 Descending New York Center
06:43PM 41.9433 -76.0075 297° West 181 208 12,100 -120 Descending New York Center
06:44PM 41.9639 -76.0592 298° West 181 208 12,100  Level New York Center
06:45PM 41.9842 -76.1194 294° West 181 208 12,100  Level New York Center
06:46PM 42.0103 -76.1831 299° West 181 208 12,100  Level New York Center
06:47PM 42.0325 -76.2433 296° West 181 208 12,100  Level New York Center
06:48PM 42.0547 -76.3011 297° West 181 208 12,100  Level New York Center
06:49PM 42.0792 -76.3619 298° West 181 208 12,100 -60 Level New York Center
06:50PM 42.1014 -76.4197 297° West 181 208 12,000 -60 Descending New York Center
06:51PM 42.1214 -76.4800 294° West 181 208 12,000  Level New York Center
06:52PM 42.1456 -76.5381 299° West 181 208 12,000  Level New York Center
06:53PM 42.1678 -76.5989 296° West 181 208 12,000  Level New York Center
06:54PM 42.1897 -76.6567 297° West 181 208 12,000  Level New York Center
06:55PM 42.2117 -76.7175 296° West 181 208 12,000  Level New York Center
06:56PM 42.2369 -76.7828 298° West 180 207 12,000  Level Cleveland Center
06:57PM 42.2597 -76.8403 298° West 180 207 12,000  Level Cleveland Center
06:58PM 42.2825 -76.9008 297° West 180 207 12,000  Level Cleveland Center
06:59PM 42.3033 -76.9614 295° West 180 207 12,000  Level Cleveland Center
07:00PM 42.3258 -77.0189 298° West 174 200 12,000  Level Cleveland Center
07:01PM 42.3464 -77.0769 296° West 174 200 12,000  Level Cleveland Center
07:02PM 42.3692 -77.1347 298° West 174 200 12,000  Level Cleveland Center
07:03PM 42.3917 -77.1953 297° West 174 200 12,000  Level Cleveland Center
07:04PM 42.4122 -77.2561 295° West 174 200 12,000  Level Cleveland Center
07:05PM 42.4369 -77.3194 298° West 174 200 12,000  Level Cleveland Center
07:06PM 42.4572 -77.3775 295° West 174 200 12,000  Level Cleveland Center
07:07PM 42.4800 -77.4383 297° West 174 200 12,000 -60 Level Cleveland Center
07:08PM 42.5003 -77.4964 295° West 174 200 11,900 -60 Descending Cleveland Center
07:09PM 42.5225 -77.5544 297° West 168 193 11,900  Level Cleveland Center
07:10PM 42.5450 -77.6183 296° West 177 204 11,900 -60 Level Cleveland Center
07:11PM 42.5675 -77.6794 297° West 177 204 11,800 -300 Descending Cleveland Center
07:12PM 42.5917 -77.7261 305° West 199 229 11,400 -600 Descending Cleveland Center
07:13PM 42.6242 -77.7811 309° West 203 234 10,800 -540 Descending Cleveland Center
07:14PM 42.6697 -77.8497 312° West 193 222 10,200 -1,740 Descending Cleveland Center
07:15PM 42.7108 -77.9186 309° West 206 237 7,000 -660 Descending Cleveland Center
07:16PM 42.7475 -77.9764 311° West 206 237 8,900 720 Climbing Cleveland Center
07:17PM 42.7758 -78.0206 311° West 200 230 8,500 -540 Descending Cleveland Center
07:18PM 42.8167 -78.0783 314° West 200 230 7,900 -600 Descending Cleveland Center
07:19PM 42.8572 -78.1247 320° Northwest 187 215 7,300 -660 Descending Cleveland Center
07:20PM 42.9019 -78.1742 321° Northwest 187 215 6,600 -660 Descending Cleveland Center
07:21PM 42.9383 -78.2181 319° Northwest 181 208 6,000 -600 Descending Cleveland Center
07:23PM 42.9833 -78.3500 295° West 165 190 4,600 -600 Descending Buffalo TRACON
07:24PM 43.0000 -78.4167 289° West 166 191 4,100 -660 Descending Buffalo TRACON
07:26PM 43.0167 -78.4667 295° West 177 204 3,300 -780 Descending Buffalo TRACON
07:27PM 43.0333 -78.5333 289° West 172 198 2,500 -540 Descending Buffalo TRACON
07:28PM 43.0333 -78.5833 270° West 136 157 2,300 -120 Descending Buffalo TRACON
07:28PM 43.0167 -78.6167 236° Southwest 128 147 2,300 -240 Level Buffalo TRACON
07:29PM 43.0000 -78.6500 236° Southwest 116 133 1,900 -480 Descending Buffalo TRACON
07:30PM 42.9667 -78.6833 216° Southwest 112 129 1,400 -600 Descending Buffalo TRACON
07:31PM 42.9500 -78.7167 236° Southwest 112 129 800 -600 Descending Buffalo TRACON
07:33PM 42.9333 -78.7167 233° Southwest  Level FlightAware Approximate
07:40PM 42.9404 -78.7306 233° Southwest  Level Estimated